Talmadge, Maine
Current Conditions -  °F | °C
As of 6:53 PM on Friday 19 Dec 2014 (Local Time) from KHUL Reporting Station
Clear Clear  
Wind Chill: -11°   Ceiling: Unl
Heat Index: -5°   Visibility: 10mi
Dew Point: -9°   Wind: 10mph
Humidity: 74%   Direction: 350°N
Pressure: 30.01"   Gusts: NA
Location:  45.3759°N, 67.6018°W
Report Text: KHUL 192353Z AUTO 35009KT 10SM CLR M05/M09 A3001 RMK AO2 SLP171 T10501089 11017 21067 53038
Loading
Personal Weather Stations






























Interactive Weather Map New forecast layout! Learn more

10-Day Weather Forecast

Advertisements
Track Severe Weather on mobile